Time;durP1;ratioP1;P1;durP2;ratioP2;P2;SDS_P1;SDS_P2;PMS_P1;PMS_P2;Temp;Humidity;BMP_temperature;BMP_pressure;BME280_temperature;BME280_humidity;BME280_pressure;Samples;Min_cycle;Max_cycle;Signal;HPM_P1;HPM_P2
2022/11/30 00:03:25;;;;;;;97.95;82.00;;;;;;;;;;10208102;28;20052;-74
2022/11/30 00:08:21;;;;;;;97.55;86.93;;;;;;;;;;10199662;28;20559;-74
2022/11/30 00:13:17;;;;;;;109.78;89.65;;;;;;;;;;10204290;28;20045;-73
2022/11/30 00:18:16;;;;;;;94.10;84.32;;;;;;;;;;10212806;28;20044;-73
2022/11/30 00:23:13;;;;;;;95.78;85.50;;;;;;;;;;10209549;28;20128;-73
2022/11/30 00:28:09;;;;;;;98.55;85.05;;;;;;;;;;10192332;28;20531;-73
2022/11/30 00:33:05;;;;;;;92.78;82.10;;;;;;;;;;10204883;28;20053;-70
2022/11/30 00:38:02;;;;;;;99.28;83.45;;;;;;;;;;10198678;28;20053;-73
2022/11/30 00:42:58;;;;;;;99.15;85.15;;;;;;;;;;10207231;28;20072;-71
2022/11/30 00:47:54;;;;;;;103.70;86.40;;;;;;;;;;10219987;28;20042;-72
2022/11/30 00:52:50;;;;;;;107.45;88.80;;;;;;;;;;10198247;28;20080;-72
2022/11/30 00:57:47;;;;;;;99.88;88.97;;;;;;;;;;10199955;28;20041;-72
2022/11/30 01:02:43;;;;;;;98.88;86.88;;;;;;;;;;10203743;28;20049;-71
2022/11/30 01:07:40;;;;;;;98.80;86.80;;;;;;;;;;10206298;28;20042;-71
2022/11/30 01:12:36;;;;;;;99.60;84.80;;;;;;;;;;10216041;28;20084;-72
2022/11/30 01:17:32;;;;;;;96.80;86.38;;;;;;;;;;10205172;28;20042;-71
2022/11/30 01:22:28;;;;;;;111.40;88.38;;;;;;;;;;10201607;28;20445;-72
2022/11/30 01:27:25;;;;;;;113.03;87.22;;;;;;;;;;10201840;28;20121;-72
2022/11/30 01:32:21;;;;;;;102.10;87.00;;;;;;;;;;10210975;28;20046;-73
2022/11/30 01:37:17;;;;;;;107.63;85.10;;;;;;;;;;10200498;28;20048;-71
2022/11/30 01:42:18;;;;;;;101.50;83.32;;;;;;;;;;10205790;28;20053;-70
2022/11/30 01:47:15;;;;;;;112.88;87.50;;;;;;;;;;10198773;28;20049;-71
2022/11/30 01:52:13;;;;;;;105.38;88.38;;;;;;;;;;10203473;28;20076;-72
2022/11/30 01:57:12;;;;;;;102.80;89.35;;;;;;;;;;10195788;28;20049;-72
2022/11/30 02:02:08;;;;;;;107.82;89.57;;;;;;;;;;10200541;28;20050;-73
2022/11/30 02:07:06;;;;;;;109.45;88.85;;;;;;;;;;10203207;28;20044;-70
2022/11/30 02:12:04;;;;;;;95.40;84.80;;;;;;;;;;10200286;28;20100;-71
2022/11/30 02:17:12;;;;;;;106.13;86.45;;;;;;;;;;10206221;28;20421;-71
2022/11/30 02:22:21;;;;;;;106.03;85.82;;;;;;;;;;10213003;28;20524;-73
2022/11/30 02:27:36;;;;;;;109.93;85.32;;;;;;;;;;10211232;28;20045;-74
2022/11/30 02:32:43;;;;;;;94.18;82.53;;;;;;;;;;10201411;28;20124;-74
2022/11/30 02:37:39;;;;;;;99.47;79.32;;;;;;;;;;10199101;28;20041;-74
2022/11/30 02:42:35;;;;;;;101.53;83.28;;;;;;;;;;10201496;28;20044;-73
2022/11/30 02:47:32;;;;;;;98.28;83.60;;;;;;;;;;10212397;28;20416;-73
2022/11/30 02:52:28;;;;;;;101.55;86.25;;;;;;;;;;10207218;28;20049;-73
2022/11/30 02:57:25;;;;;;;93.82;82.93;;;;;;;;;;10195351;28;20133;-73
2022/11/30 03:02:21;;;;;;;102.35;86.85;;;;;;;;;;10190594;28;20393;-75
2022/11/30 03:07:17;;;;;;;104.60;89.03;;;;;;;;;;10199860;28;20057;-71
2022/11/30 03:12:14;;;;;;;113.88;90.28;;;;;;;;;;10185403;28;20136;-71
2022/11/30 03:17:10;;;;;;;105.30;89.00;;;;;;;;;;10203010;28;20053;-71
2022/11/30 03:22:06;;;;;;;97.10;84.20;;;;;;;;;;10206210;28;20416;-73
2022/11/30 03:27:03;;;;;;;109.40;90.78;;;;;;;;;;10206459;28;20128;-74
2022/11/30 03:31:59;;;;;;;106.43;86.65;;;;;;;;;;10202144;28;20433;-73
2022/11/30 03:36:56;;;;;;;108.45;86.32;;;;;;;;;;10214815;28;20050;-73
2022/11/30 03:41:52;;;;;;;104.22;87.35;;;;;;;;;;10195721;28;20154;-71
2022/11/30 03:46:48;;;;;;;97.63;81.53;;;;;;;;;;10204555;28;20125;-71
2022/11/30 03:51:44;;;;;;;101.07;84.60;;;;;;;;;;10217552;28;20053;-71
2022/11/30 03:56:41;;;;;;;108.68;85.57;;;;;;;;;;10201053;28;20042;-72
2022/11/30 04:01:39;;;;;;;110.00;89.65;;;;;;;;;;10200004;28;20117;-74
2022/11/30 04:06:36;;;;;;;109.68;82.20;;;;;;;;;;10198912;28;20075;-74
2022/11/30 04:11:32;;;;;;;109.53;88.30;;;;;;;;;;10206989;28;20042;-74
2022/11/30 04:16:28;;;;;;;120.30;90.88;;;;;;;;;;10194000;28;20516;-73
2022/11/30 04:21:25;;;;;;;110.93;86.97;;;;;;;;;;10203248;28;20570;-72
2022/11/30 04:26:21;;;;;;;111.47;87.80;;;;;;;;;;10193407;28;20128;-73
2022/11/30 04:31:17;;;;;;;118.45;88.70;;;;;;;;;;10186984;28;20054;-72
2022/11/30 04:36:16;;;;;;;113.22;86.78;;;;;;;;;;10177283;28;20038;-74
2022/11/30 04:41:13;;;;;;;113.13;88.78;;;;;;;;;;10179130;28;20049;-73
2022/11/30 04:46:09;;;;;;;123.88;88.88;;;;;;;;;;10199494;28;20618;-71
2022/11/30 04:51:07;;;;;;;126.85;95.43;;;;;;;;;;10189565;28;20393;-71
2022/11/30 04:56:07;;;;;;;116.22;89.15;;;;;;;;;;10188578;28;20054;-72
2022/11/30 05:01:03;;;;;;;118.32;82.85;;;;;;;;;;10172599;28;20045;-74
2022/11/30 05:06:00;;;;;;;127.75;90.45;;;;;;;;;;10188941;28;20125;-74
2022/11/30 05:10:56;;;;;;;118.05;88.65;;;;;;;;;;10189568;28;20081;-74
2022/11/30 05:15:53;;;;;;;121.18;93.90;;;;;;;;;;10181465;28;20133;-74
2022/11/30 05:20:50;;;;;;;116.40;93.25;;;;;;;;;;10186263;28;20041;-73
2022/11/30 05:25:46;;;;;;;124.00;92.88;;;;;;;;;;10190395;28;20058;-73
2022/11/30 05:30:43;;;;;;;125.63;93.70;;;;;;;;;;10191155;28;20125;-73
2022/11/30 05:35:39;;;;;;;111.40;85.75;;;;;;;;;;10190638;28;20038;-72
2022/11/30 05:40:35;;;;;;;121.43;96.18;;;;;;;;;;10188768;28;20046;-73
2022/11/30 05:45:32;;;;;;;125.38;96.53;;;;;;;;;;10177792;28;20065;-73
2022/11/30 05:50:28;;;;;;;124.65;96.72;;;;;;;;;;10186679;28;20046;-73
2022/11/30 05:55:25;;;;;;;141.32;96.45;;;;;;;;;;10191241;28;20049;-73
2022/11/30 06:00:22;;;;;;;123.88;94.93;;;;;;;;;;10181652;28;20064;-72
2022/11/30 06:05:18;;;;;;;151.30;96.63;;;;;;;;;;10190241;28;20059;-72
2022/11/30 06:10:14;;;;;;;132.98;93.30;;;;;;;;;;10190728;28;20072;-72
2022/11/30 06:15:10;;;;;;;132.00;96.40;;;;;;;;;;10200210;28;20549;-71
2022/11/30 06:20:07;;;;;;;129.85;91.00;;;;;;;;;;10191053;28;20064;-71
2022/11/30 06:25:03;;;;;;;139.85;94.05;;;;;;;;;;10189093;28;20041;-71
2022/11/30 06:30:00;;;;;;;134.05;97.88;;;;;;;;;;10192579;28;20156;-71
2022/11/30 06:34:56;;;;;;;132.43;94.75;;;;;;;;;;10187177;28;20054;-72
2022/11/30 06:39:52;;;;;;;126.55;90.70;;;;;;;;;;10187854;28;20060;-72
2022/11/30 06:45:05;;;;;;;124.22;91.22;;;;;;;;;;10190354;28;20050;-72
2022/11/30 06:50:01;;;;;;;124.90;88.85;;;;;;;;;;10183110;28;20402;-71
2022/11/30 06:54:57;;;;;;;132.40;93.85;;;;;;;;;;10189684;28;20049;-71
2022/11/30 06:59:54;;;;;;;136.88;99.63;;;;;;;;;;10198657;28;20667;-71
2022/11/30 07:04:50;;;;;;;118.10;96.60;;;;;;;;;;10190412;28;20052;-72
2022/11/30 07:09:46;;;;;;;134.00;98.68;;;;;;;;;;10189534;28;20137;-71
2022/11/30 07:14:42;;;;;;;126.38;94.65;;;;;;;;;;10189157;28;20145;-72
2022/11/30 07:19:39;;;;;;;115.60;96.40;;;;;;;;;;10190615;28;20133;-71
2022/11/30 07:29:51;;;;;;;126.07;96.63;;;;;;;;;;10179734;28;20137;-71
2022/11/30 07:34:47;;;;;;;127.40;97.32;;;;;;;;;;10189079;28;20506;-71
2022/11/30 07:39:44;;;;;;;109.10;94.53;;;;;;;;;;10186485;28;20182;-71
2022/11/30 07:44:40;;;;;;;109.53;92.43;;;;;;;;;;10189100;28;20065;-72
2022/11/30 07:49:38;;;;;;;105.70;91.22;;;;;;;;;;10190523;28;20077;-71
2022/11/30 07:54:34;;;;;;;109.78;97.35;;;;;;;;;;10188277;28;20038;-71
2022/11/30 07:59:31;;;;;;;103.60;90.85;;;;;;;;;;10188320;28;20114;-71
2022/11/30 08:04:27;;;;;;;99.88;89.28;;;;;;;;;;10207270;28;20038;-72
2022/11/30 08:09:23;;;;;;;101.85;88.85;;;;;;;;;;10200044;28;20049;-71
2022/11/30 08:14:19;;;;;;;97.13;86.68;;;;;;;;;;10209458;28;20045;-71
2022/11/30 08:19:16;;;;;;;100.40;88.20;;;;;;;;;;10199674;28;20138;-72
2022/11/30 08:24:12;;;;;;;92.07;82.97;;;;;;;;;;10194253;28;20046;-72
2022/11/30 08:29:12;;;;;;;89.88;80.40;;;;;;;;;;10204258;28;20509;-72
2022/11/30 08:34:10;;;;;;;90.45;81.30;;;;;;;;;;10192857;28;20048;-71
2022/11/30 08:39:07;;;;;;;89.38;77.38;;;;;;;;;;10196562;28;20046;-72
2022/11/30 08:44:04;;;;;;;81.75;73.05;;;;;;;;;;10191495;28;20038;-72
2022/11/30 08:49:01;;;;;;;89.95;78.05;;;;;;;;;;10195127;28;20038;-72
2022/11/30 08:54:16;;;;;;;86.20;76.93;;;;;;;;;;10193952;28;20042;-72
2022/11/30 08:59:12;;;;;;;78.13;69.85;;;;;;;;;;10192981;28;20041;-71
2022/11/30 09:04:08;;;;;;;80.13;71.65;;;;;;;;;;10193590;28;20042;-72
2022/11/30 09:09:05;;;;;;;81.65;73.38;;;;;;;;;;10192660;28;20060;-72
2022/11/30 09:14:03;;;;;;;76.80;68.78;;;;;;;;;;10192442;28;20050;-72
2022/11/30 09:18:59;;;;;;;74.97;67.10;;;;;;;;;;10192095;28;20077;-71
2022/11/30 09:23:56;;;;;;;75.70;68.07;;;;;;;;;;10192247;28;20045;-71
2022/11/30 09:28:53;;;;;;;75.05;67.63;;;;;;;;;;10192927;28;20045;-72
2022/11/30 09:33:49;;;;;;;70.90;63.95;;;;;;;;;;10191495;28;20053;-72
2022/11/30 09:38:46;;;;;;;75.60;68.10;;;;;;;;;;10191756;28;20045;-71
2022/11/30 09:44:00;;;;;;;69.63;62.28;;;;;;;;;;10190162;28;20048;-71
2022/11/30 09:49:01;;;;;;;73.68;65.75;;;;;;;;;;10189076;28;20421;-71
2022/11/30 09:54:01;;;;;;;69.28;62.35;;;;;;;;;;10200302;28;20042;-71
2022/11/30 09:59:10;;;;;;;71.22;63.70;;;;;;;;;;10190845;28;20494;-72
2022/11/30 10:04:14;;;;;;;69.80;62.92;;;;;;;;;;10178809;28;20046;-72
2022/11/30 10:09:18;;;;;;;70.68;63.45;;;;;;;;;;10182432;28;20141;-72
2022/11/30 10:14:18;;;;;;;71.38;65.00;;;;;;;;;;10194929;28;20497;-71
2022/11/30 10:19:32;;;;;;;72.75;65.72;;;;;;;;;;10189081;28;20037;-72
2022/11/30 10:24:57;;;;;;;70.55;63.45;;;;;;;;;;10205716;28;20044;-71
2022/11/30 10:29:54;;;;;;;71.85;64.85;;;;;;;;;;10187866;28;20156;-71
2022/11/30 10:34:55;;;;;;;68.20;61.30;;;;;;;;;;10186554;28;20050;-71
2022/11/30 10:39:51;;;;;;;70.18;63.30;;;;;;;;;;10189337;28;20468;-72
2022/11/30 10:44:56;;;;;;;68.68;62.13;;;;;;;;;;10190245;28;20050;-71
2022/11/30 10:49:52;;;;;;;70.03;63.53;;;;;;;;;;10188017;28;20042;-72
2022/11/30 10:54:50;;;;;;;68.90;62.05;;;;;;;;;;10188642;28;20042;-72
2022/11/30 10:59:49;;;;;;;69.45;62.47;;;;;;;;;;10188508;28;20113;-72
2022/11/30 11:04:45;;;;;;;73.53;66.50;;;;;;;;;;10181702;28;20121;-71
2022/11/30 11:09:45;;;;;;;67.60;60.90;;;;;;;;;;10186721;28;20080;-72
2022/11/30 11:14:42;;;;;;;72.55;65.70;;;;;;;;;;10189599;28;20449;-71
2022/11/30 11:19:40;;;;;;;70.25;62.95;;;;;;;;;;10183520;28;20069;-72
2022/11/30 11:24:37;;;;;;;70.00;63.30;;;;;;;;;;10199394;28;20048;-72
2022/11/30 11:29:33;;;;;;;71.18;64.25;;;;;;;;;;10188520;28;20124;-73
2022/11/30 11:34:31;;;;;;;72.10;65.13;;;;;;;;;;10181024;28;20046;-72
2022/11/30 11:39:28;;;;;;;71.03;64.35;;;;;;;;;;10195104;28;20038;-71
2022/11/30 11:44:25;;;;;;;69.28;63.20;;;;;;;;;;10198634;28;20049;-72
2022/11/30 11:49:23;;;;;;;72.35;65.80;;;;;;;;;;10195648;28;20478;-72
2022/11/30 11:54:27;;;;;;;73.00;65.85;;;;;;;;;;10196096;28;20548;-71
2022/11/30 11:59:38;;;;;;;71.25;64.75;;;;;;;;;;10203915;28;20061;-71
2022/11/30 12:04:39;;;;;;;71.95;65.57;;;;;;;;;;10192260;28;20053;-70
2022/11/30 12:09:38;;;;;;;71.32;64.65;;;;;;;;;;10196203;28;20050;-72
2022/11/30 12:14:35;;;;;;;74.65;67.85;;;;;;;;;;10189512;28;20046;-71
2022/11/30 12:19:49;;;;;;;74.40;67.75;;;;;;;;;;10197248;28;20052;-71
2022/11/30 12:24:45;;;;;;;75.97;68.85;;;;;;;;;;10201178;28;20046;-71
2022/11/30 12:30:05;;;;;;;74.18;67.78;;;;;;;;;;10201749;28;20148;-72
2022/11/30 12:35:01;;;;;;;74.45;67.38;;;;;;;;;;10195071;28;20061;-72
2022/11/30 12:40:12;;;;;;;75.45;68.82;;;;;;;;;;10193134;28;20042;-71
2022/11/30 12:45:21;;;;;;;75.00;68.05;;;;;;;;;;10192625;28;20129;-71
2022/11/30 12:50:17;;;;;;;80.53;73.10;;;;;;;;;;10200866;28;20057;-71
2022/11/30 12:55:18;;;;;;;75.82;68.82;;;;;;;;;;10192970;28;20071;-71
2022/11/30 13:00:19;;;;;;;80.15;72.90;;;;;;;;;;10202197;28;20132;-72
2022/11/30 13:05:20;;;;;;;76.00;69.00;;;;;;;;;;10193204;28;20045;-72
2022/11/30 13:10:51;;;;;;;78.07;70.70;;;;;;;;;;10192769;28;20053;-72
2022/11/30 13:15:48;;;;;;;85.03;76.78;;;;;;;;;;10100225;28;20057;-71
2022/11/30 13:21:00;;;;;;;81.05;72.93;;;;;;;;;;10191822;28;20057;-72
2022/11/30 13:26:02;;;;;;;89.40;80.57;;;;;;;;;;10216562;28;20307;-72
2022/11/30 13:31:04;;;;;;;88.10;79.32;;;;;;;;;;10196303;28;20060;-72
2022/11/30 13:36:05;;;;;;;84.60;75.40;;;;;;;;;;10201188;28;20046;-72
2022/11/30 13:41:02;;;;;;;92.28;82.47;;;;;;;;;;10190667;28;20045;-71
2022/11/30 13:46:11;;;;;;;94.60;84.60;;;;;;;;;;10191711;28;20061;-72
2022/11/30 13:51:07;;;;;;;93.70;83.68;;;;;;;;;;10193154;28;20056;-71
2022/11/30 13:56:18;;;;;;;90.78;81.22;;;;;;;;;;10189613;28;20041;-72
2022/11/30 14:01:22;;;;;;;93.00;82.70;;;;;;;;;;10187279;28;20129;-71
2022/11/30 14:06:47;;;;;;;100.93;87.80;;;;;;;;;;10202416;28;20612;-71
2022/11/30 14:11:44;;;;;;;100.18;88.53;;;;;;;;;;10199502;28;20049;-71
2022/11/30 14:16:40;;;;;;;103.55;89.07;;;;;;;;;;10205738;28;20647;-72
2022/11/30 14:21:41;;;;;;;105.95;86.40;;;;;;;;;;10210013;28;20528;-71
2022/11/30 14:26:48;;;;;;;112.25;91.20;;;;;;;;;;10206509;28;20133;-72
2022/11/30 14:31:54;;;;;;;98.97;83.38;;;;;;;;;;10204161;28;20041;-72
2022/11/30 14:36:53;;;;;;;100.65;84.93;;;;;;;;;;10197127;28;20577;-72
2022/11/30 14:41:49;;;;;;;109.32;88.78;;;;;;;;;;10201176;28;20052;-72
2022/11/30 14:46:45;;;;;;;109.82;86.10;;;;;;;;;;10199996;28;20041;-72
2022/11/30 14:51:46;;;;;;;113.35;88.72;;;;;;;;;;10193447;28;20060;-71
2022/11/30 14:56:46;;;;;;;107.80;87.90;;;;;;;;;;10200531;28;20049;-72
2022/11/30 15:01:42;;;;;;;99.53;84.53;;;;;;;;;;10208246;28;20052;-72
2022/11/30 15:06:43;;;;;;;108.65;89.75;;;;;;;;;;10187407;28;20089;-72
2022/11/30 15:11:40;;;;;;;105.03;90.28;;;;;;;;;;10213143;28;20046;-73
2022/11/30 15:16:37;;;;;;;113.07;93.03;;;;;;;;;;10214600;28;20310;-72
2022/11/30 15:21:33;;;;;;;108.32;90.38;;;;;;;;;;10181310;28;20045;-72
2022/11/30 15:26:32;;;;;;;121.18;95.10;;;;;;;;;;10200711;28;20042;-73
2022/11/30 15:31:37;;;;;;;116.70;92.38;;;;;;;;;;10207689;28;20050;-72
2022/11/30 15:36:34;;;;;;;117.78;95.15;;;;;;;;;;10201602;28;20068;-72
2022/11/30 15:41:31;;;;;;;120.07;95.05;;;;;;;;;;10202416;28;20066;-71
2022/11/30 15:46:32;;;;;;;104.90;88.25;;;;;;;;;;10204283;28;20045;-71
2022/11/30 15:51:35;;;;;;;128.38;96.07;;;;;;;;;;10211860;28;20048;-72
2022/11/30 15:56:31;;;;;;;128.02;95.97;;;;;;;;;;10196991;28;20046;-72
2022/11/30 16:01:28;;;;;;;128.90;100.80;;;;;;;;;;10198002;28;20046;-71
2022/11/30 16:06:43;;;;;;;118.60;102.35;;;;;;;;;;10200025;28;20049;-72
2022/11/30 16:11:40;;;;;;;111.82;99.47;;;;;;;;;;10214941;28;20100;-72
2022/11/30 16:16:36;;;;;;;121.88;103.10;;;;;;;;;;10202450;28;20060;-72
2022/11/30 16:21:32;;;;;;;113.70;97.80;;;;;;;;;;10203232;28;20253;-72
2022/11/30 16:26:29;;;;;;;109.18;94.40;;;;;;;;;;10211364;28;20069;-72
2022/11/30 16:31:45;;;;;;;114.88;98.18;;;;;;;;;;10204179;28;20092;-72
2022/11/30 16:36:41;;;;;;;110.88;98.93;;;;;;;;;;10204518;28;20053;-72
2022/11/30 16:41:38;;;;;;;117.18;99.00;;;;;;;;;;10208480;28;20267;-72
2022/11/30 16:46:35;;;;;;;113.22;100.97;;;;;;;;;;10184649;28;20555;-72
2022/11/30 16:51:33;;;;;;;110.32;98.03;;;;;;;;;;10198473;28;20072;-72
2022/11/30 16:56:29;;;;;;;109.22;97.57;;;;;;;;;;10192081;28;20409;-72
2022/11/30 17:01:29;;;;;;;111.75;99.55;;;;;;;;;;10194449;28;20062;-72
2022/11/30 17:06:31;;;;;;;108.70;97.18;;;;;;;;;;10186109;28;20061;-72
2022/11/30 17:11:28;;;;;;;108.85;97.03;;;;;;;;;;10184472;28;20425;-72
2022/11/30 17:16:25;;;;;;;114.57;100.90;;;;;;;;;;10183397;28;20046;-72
2022/11/30 17:21:32;;;;;;;118.93;102.47;;;;;;;;;;10184243;28;20041;-72
2022/11/30 17:26:28;;;;;;;122.07;100.95;;;;;;;;;;10186750;28;20132;-72
2022/11/30 17:31:24;;;;;;;125.53;104.82;;;;;;;;;;10183731;28;20519;-72
2022/11/30 17:36:22;;;;;;;124.88;103.00;;;;;;;;;;10187600;28;20037;-72
2022/11/30 17:41:18;;;;;;;125.20;102.15;;;;;;;;;;10189534;28;20038;-72
2022/11/30 17:46:17;;;;;;;128.45;99.57;;;;;;;;;;10192931;28;20533;-73
2022/11/30 17:51:13;;;;;;;136.43;107.85;;;;;;;;;;10190745;28;20100;-72
2022/11/30 17:56:11;;;;;;;130.15;104.15;;;;;;;;;;10173565;28;20137;-73
2022/11/30 18:01:21;;;;;;;136.55;105.63;;;;;;;;;;10195590;28;20054;-72
2022/11/30 18:06:17;;;;;;;160.68;109.40;;;;;;;;;;10183933;28;20050;-72
2022/11/30 18:11:15;;;;;;;144.40;112.03;;;;;;;;;;10200830;28;20104;-72
2022/11/30 18:16:13;;;;;;;143.07;112.57;;;;;;;;;;10200269;28;20151;-72
2022/11/30 18:21:11;;;;;;;130.05;108.57;;;;;;;;;;10202331;28;20562;-72
2022/11/30 18:26:10;;;;;;;131.50;108.10;;;;;;;;;;10198190;28;20056;-72
2022/11/30 18:31:07;;;;;;;130.05;103.70;;;;;;;;;;10186081;28;20096;-72
2022/11/30 18:36:06;;;;;;;128.73;108.75;;;;;;;;;;10193939;28;20041;-72
2022/11/30 18:41:03;;;;;;;134.25;111.95;;;;;;;;;;10204150;28;20045;-72
2022/11/30 18:46:03;;;;;;;125.75;106.05;;;;;;;;;;10205290;28;20045;-73
2022/11/30 18:51:08;;;;;;;121.20;108.00;;;;;;;;;;10206465;28;20041;-74
2022/11/30 18:56:16;;;;;;;122.25;108.80;;;;;;;;;;10201142;28;20654;-72
2022/11/30 19:01:16;;;;;;;121.38;106.43;;;;;;;;;;10203113;28;20134;-72
2022/11/30 19:06:13;;;;;;;120.50;107.32;;;;;;;;;;10204978;28;20125;-72
2022/11/30 19:11:10;;;;;;;122.18;107.18;;;;;;;;;;10208538;28;20045;-72
2022/11/30 19:16:08;;;;;;;113.03;100.78;;;;;;;;;;10208238;28;20536;-72
2022/11/30 19:21:11;;;;;;;114.72;101.65;;;;;;;;;;10207197;28;20534;-72
2022/11/30 19:26:09;;;;;;;110.53;98.97;;;;;;;;;;10220478;28;20056;-72
2022/11/30 19:31:07;;;;;;;113.53;100.28;;;;;;;;;;10198235;28;20046;-72
2022/11/30 19:36:04;;;;;;;116.70;101.60;;;;;;;;;;10190285;28;20042;-72
2022/11/30 19:41:04;;;;;;;114.00;100.68;;;;;;;;;;10206868;28;20424;-72
2022/11/30 19:46:05;;;;;;;114.60;101.95;;;;;;;;;;10198813;28;20067;-72
2022/11/30 19:51:05;;;;;;;113.78;101.65;;;;;;;;;;10203439;28;20444;-73
2022/11/30 19:56:05;;;;;;;119.63;104.95;;;;;;;;;;10206613;28;20486;-72
2022/11/30 20:01:03;;;;;;;119.80;105.57;;;;;;;;;;10206657;28;20052;-72
2022/11/30 20:06:00;;;;;;;114.97;102.45;;;;;;;;;;10200034;28;20037;-72
2022/11/30 20:10:57;;;;;;;115.47;101.60;;;;;;;;;;10209222;28;20053;-72
2022/11/30 20:15:53;;;;;;;118.65;106.22;;;;;;;;;;10215492;28;20505;-72
2022/11/30 20:20:49;;;;;;;121.90;108.28;;;;;;;;;;10211327;28;20057;-72
2022/11/30 20:25:45;;;;;;;118.22;105.68;;;;;;;;;;10206489;28;20433;-71
2022/11/30 20:30:42;;;;;;;119.93;107.60;;;;;;;;;;10205752;28;20133;-72
2022/11/30 20:35:39;;;;;;;118.07;105.55;;;;;;;;;;10212162;28;20128;-72
2022/11/30 20:40:38;;;;;;;123.88;111.57;;;;;;;;;;10197811;28;20126;-72
2022/11/30 20:45:34;;;;;;;121.50;109.10;;;;;;;;;;10211984;28;20514;-72
2022/11/30 20:50:31;;;;;;;118.57;106.68;;;;;;;;;;10205187;28;20050;-72
2022/11/30 20:55:27;;;;;;;122.75;110.30;;;;;;;;;;10205992;28;20125;-72
2022/11/30 21:00:23;;;;;;;120.35;107.95;;;;;;;;;;10208787;28;20046;-72
2022/11/30 21:05:19;;;;;;;117.82;106.07;;;;;;;;;;10204125;28;20428;-72
2022/11/30 21:10:16;;;;;;;123.07;110.28;;;;;;;;;;10204907;28;20042;-72
2022/11/30 21:15:12;;;;;;;117.15;105.25;;;;;;;;;;10184686;28;20049;-73
2022/11/30 21:20:08;;;;;;;117.63;105.18;;;;;;;;;;10185899;28;20136;-74
2022/11/30 21:25:05;;;;;;;119.07;107.28;;;;;;;;;;10198800;28;20129;-70
2022/11/30 21:30:02;;;;;;;127.50;114.60;;;;;;;;;;10187136;28;20050;-73
2022/11/30 21:34:59;;;;;;;124.30;111.85;;;;;;;;;;10177750;28;20046;-74
2022/11/30 21:39:55;;;;;;;125.00;112.65;;;;;;;;;;10166864;28;20150;-74
2022/11/30 21:44:51;;;;;;;125.32;113.03;;;;;;;;;;10189103;28;20471;-75
2022/11/30 21:49:48;;;;;;;127.07;114.35;;;;;;;;;;10179631;28;20053;-74
2022/11/30 21:54:44;;;;;;;131.00;117.97;;;;;;;;;;10183951;28;20566;-75
2022/11/30 21:59:40;;;;;;;133.27;120.75;;;;;;;;;;10183873;28;20506;-75
2022/11/30 22:04:37;;;;;;;129.35;116.88;;;;;;;;;;10183665;28;20041;-74
2022/11/30 22:09:33;;;;;;;130.43;118.28;;;;;;;;;;10201490;28;20045;-75
2022/11/30 22:14:29;;;;;;;130.70;117.78;;;;;;;;;;10191059;28;20052;-74
2022/11/30 22:19:26;;;;;;;136.55;123.95;;;;;;;;;;10206597;28;20038;-73
2022/11/30 22:24:22;;;;;;;132.55;120.03;;;;;;;;;;10199757;28;20064;-73
2022/11/30 22:29:21;;;;;;;135.05;122.20;;;;;;;;;;10204254;28;20045;-73
2022/11/30 22:34:17;;;;;;;132.75;120.03;;;;;;;;;;10192284;28;20513;-74
2022/11/30 22:39:15;;;;;;;136.60;123.88;;;;;;;;;;10185681;28;20046;-73
2022/11/30 22:44:12;;;;;;;138.95;125.80;;;;;;;;;;10201402;28;20046;-72
2022/11/30 22:49:10;;;;;;;131.40;118.85;;;;;;;;;;10188923;28;20046;-72
2022/11/30 22:54:14;;;;;;;127.68;115.70;;;;;;;;;;10189513;28;20530;-72
2022/11/30 22:59:10;;;;;;;133.00;120.68;;;;;;;;;;10188204;28;20127;-74
2022/11/30 23:04:08;;;;;;;134.73;122.72;;;;;;;;;;10187637;28;20038;-74
2022/11/30 23:09:05;;;;;;;136.68;123.93;;;;;;;;;;10181876;28;20042;-73
2022/11/30 23:14:04;;;;;;;134.90;122.47;;;;;;;;;;10185569;28;20427;-72
2022/11/30 23:19:01;;;;;;;138.82;126.43;;;;;;;;;;10196738;28;20464;-73
2022/11/30 23:23:58;;;;;;;138.55;126.47;;;;;;;;;;10188334;28;20038;-73
2022/11/30 23:28:57;;;;;;;135.25;123.18;;;;;;;;;;10187345;28;20125;-73
2022/11/30 23:33:54;;;;;;;134.23;121.72;;;;;;;;;;10196020;28;20645;-70
2022/11/30 23:38:54;;;;;;;130.82;119.25;;;;;;;;;;10199406;28;20081;-70
2022/11/30 23:43:50;;;;;;;128.48;116.15;;;;;;;;;;10198383;28;20046;-74
2022/11/30 23:48:47;;;;;;;130.15;118.28;;;;;;;;;;10197110;28;20517;-74
2022/11/30 23:53:43;;;;;;;131.95;120.13;;;;;;;;;;10191490;28;20124;-74
2022/11/30 23:58:39;;;;;;;132.95;120.47;;;;;;;;;;10198375;28;20062;-74
